sensor_id;sensor_type;location;lat;lon;timestamp;temperature;humidity
12413;DHT22;13877;18.896;-99.222;2023-04-21T00:02:24;30.60;21.80
12413;DHT22;13877;18.896;-99.222;2023-04-21T00:04:52;30.50;21.10
12413;DHT22;13877;18.896;-99.222;2023-04-21T00:07:19;30.40;21.30
12413;DHT22;13877;18.896;-99.222;2023-04-21T00:09:45;30.30;22.20
12413;DHT22;13877;18.896;-99.222;2023-04-21T00:12:12;30.00;22.80
12413;DHT22;13877;18.896;-99.222;2023-04-21T00:14:39;29.80;23.10
12413;DHT22;13877;18.896;-99.222;2023-04-21T00:17:07;29.60;23.00
12413;DHT22;13877;18.896;-99.222;2023-04-21T00:19:34;29.50;23.20
12413;DHT22;13877;18.896;-99.222;2023-04-21T00:22:01;29.30;23.40
12413;DHT22;13877;18.896;-99.222;2023-04-21T00:24:29;29.20;23.50
12413;DHT22;13877;18.896;-99.222;2023-04-21T00:26:56;29.20;23.60
12413;DHT22;13877;18.896;-99.222;2023-04-21T00:29:23;29.10;23.50
12413;DHT22;13877;18.896;-99.222;2023-04-21T00:31:50;29.20;23.20
12413;DHT22;13877;18.896;-99.222;2023-04-21T00:34:17;29.20;22.90
12413;DHT22;13877;18.896;-99.222;2023-04-21T00:36:44;29.30;22.90
12413;DHT22;13877;18.896;-99.222;2023-04-21T00:39:11;29.30;22.60
12413;DHT22;13877;18.896;-99.222;2023-04-21T00:41:40;29.40;21.70
12413;DHT22;13877;18.896;-99.222;2023-04-21T00:44:08;29.50;21.80
12413;DHT22;13877;18.896;-99.222;2023-04-21T00:46:36;29.50;21.90
12413;DHT22;13877;18.896;-99.222;2023-04-21T00:49:05;29.40;21.90
12413;DHT22;13877;18.896;-99.222;2023-04-21T00:51:34;29.40;21.90
12413;DHT22;13877;18.896;-99.222;2023-04-21T00:54:04;28.50;23.80
12413;DHT22;13877;18.896;-99.222;2023-04-21T00:56:34;27.90;23.60
12413;DHT22;13877;18.896;-99.222;2023-04-21T00:59:02;28.30;23.70
12413;DHT22;13877;18.896;-99.222;2023-04-21T01:01:30;28.50;24.30
12413;DHT22;13877;18.896;-99.222;2023-04-21T01:04:00;28.50;23.80
12413;DHT22;13877;18.896;-99.222;2023-04-21T01:06:30;28.90;21.80
12413;DHT22;13877;18.896;-99.222;2023-04-21T01:08:58;29.10;22.10
12413;DHT22;13877;18.896;-99.222;2023-04-21T01:11:25;29.00;22.10
12413;DHT22;13877;18.896;-99.222;2023-04-21T01:13:53;29.00;22.60
12413;DHT22;13877;18.896;-99.222;2023-04-21T01:16:20;29.10;22.30
12413;DHT22;13877;18.896;-99.222;2023-04-21T01:18:49;29.10;22.00
12413;DHT22;13877;18.896;-99.222;2023-04-21T01:21:17;29.20;22.00
12413;DHT22;13877;18.896;-99.222;2023-04-21T01:23:44;29.20;22.30
12413;DHT22;13877;18.896;-99.222;2023-04-21T01:26:11;29.10;22.20
12413;DHT22;13877;18.896;-99.222;2023-04-21T01:28:39;29.10;22.20
12413;DHT22;13877;18.896;-99.222;2023-04-21T01:31:06;29.10;22.20
12413;DHT22;13877;18.896;-99.222;2023-04-21T01:33:33;29.00;22.30
12413;DHT22;13877;18.896;-99.222;2023-04-21T01:36:00;29.00;22.60
12413;DHT22;13877;18.896;-99.222;2023-04-21T01:38:27;28.90;22.50
12413;DHT22;13877;18.896;-99.222;2023-04-21T01:40:54;29.00;22.60
12413;DHT22;13877;18.896;-99.222;2023-04-21T01:43:23;28.90;22.90
12413;DHT22;13877;18.896;-99.222;2023-04-21T01:45:51;28.70;23.40
12413;DHT22;13877;18.896;-99.222;2023-04-21T01:48:19;28.60;23.80
12413;DHT22;13877;18.896;-99.222;2023-04-21T01:50:46;28.50;23.70
12413;DHT22;13877;18.896;-99.222;2023-04-21T01:53:14;28.50;23.90
12413;DHT22;13877;18.896;-99.222;2023-04-21T01:55:41;28.60;23.20
12413;DHT22;13877;18.896;-99.222;2023-04-21T01:58:09;28.60;23.70
12413;DHT22;13877;18.896;-99.222;2023-04-21T02:00:36;28.50;24.00
12413;DHT22;13877;18.896;-99.222;2023-04-21T02:03:04;28.40;24.00
12413;DHT22;13877;18.896;-99.222;2023-04-21T02:05:31;28.30;24.30
12413;DHT22;13877;18.896;-99.222;2023-04-21T02:07:58;28.30;24.30
12413;DHT22;13877;18.896;-99.222;2023-04-21T02:10:27;28.20;24.50
12413;DHT22;13877;18.896;-99.222;2023-04-21T02:12:53;28.10;25.00
12413;DHT22;13877;18.896;-99.222;2023-04-21T02:15:20;27.90;25.60
12413;DHT22;13877;18.896;-99.222;2023-04-21T02:17:47;27.80;25.70
12413;DHT22;13877;18.896;-99.222;2023-04-21T02:20:15;27.70;25.90
12413;DHT22;13877;18.896;-99.222;2023-04-21T02:22:42;27.70;26.00
12413;DHT22;13877;18.896;-99.222;2023-04-21T02:25:09;27.70;26.10
12413;DHT22;13877;18.896;-99.222;2023-04-21T02:27:38;27.70;26.00
12413;DHT22;13877;18.896;-99.222;2023-04-21T02:30:06;27.80;25.20
12413;DHT22;13877;18.896;-99.222;2023-04-21T02:32:34;27.90;25.20
12413;DHT22;13877;18.896;-99.222;2023-04-21T02:35:01;28.00;25.10
12413;DHT22;13877;18.896;-99.222;2023-04-21T02:37:30;27.90;25.30
12413;DHT22;13877;18.896;-99.222;2023-04-21T02:39:57;27.90;25.80
12413;DHT22;13877;18.896;-99.222;2023-04-21T02:42:24;27.80;25.50
12413;DHT22;13877;18.896;-99.222;2023-04-21T02:44:51;28.00;24.80
12413;DHT22;13877;18.896;-99.222;2023-04-21T02:47:18;28.30;24.60
12413;DHT22;13877;18.896;-99.222;2023-04-21T02:49:45;28.20;24.80
12413;DHT22;13877;18.896;-99.222;2023-04-21T02:52:12;28.20;25.80
12413;DHT22;13877;18.896;-99.222;2023-04-21T02:54:40;28.10;27.10
12413;DHT22;13877;18.896;-99.222;2023-04-21T02:57:06;27.90;28.50
12413;DHT22;13877;18.896;-99.222;2023-04-21T02:59:33;27.70;29.40
12413;DHT22;13877;18.896;-99.222;2023-04-21T03:02:00;27.30;30.60
12413;DHT22;13877;18.896;-99.222;2023-04-21T03:04:30;26.90;32.00
12413;DHT22;13877;18.896;-99.222;2023-04-21T03:06:59;26.80;32.90
12413;DHT22;13877;18.896;-99.222;2023-04-21T03:09:26;26.70;33.30
12413;DHT22;13877;18.896;-99.222;2023-04-21T03:11:53;26.50;33.70
12413;DHT22;13877;18.896;-99.222;2023-04-21T03:14:21;26.40;33.30
12413;DHT22;13877;18.896;-99.222;2023-04-21T03:16:49;26.40;33.90
12413;DHT22;13877;18.896;-99.222;2023-04-21T03:19:16;26.30;34.10
12413;DHT22;13877;18.896;-99.222;2023-04-21T03:21:45;26.20;34.10
12413;DHT22;13877;18.896;-99.222;2023-04-21T03:24:12;26.10;34.40
12413;DHT22;13877;18.896;-99.222;2023-04-21T03:26:39;26.00;34.10
12413;DHT22;13877;18.896;-99.222;2023-04-21T03:29:06;26.00;34.00
12413;DHT22;13877;18.896;-99.222;2023-04-21T03:31:34;25.90;34.30
12413;DHT22;13877;18.896;-99.222;2023-04-21T03:34:00;25.80;34.80
12413;DHT22;13877;18.896;-99.222;2023-04-21T03:36:28;25.70;35.00
12413;DHT22;13877;18.896;-99.222;2023-04-21T03:38:56;25.70;34.90
12413;DHT22;13877;18.896;-99.222;2023-04-21T03:41:24;25.70;34.90
12413;DHT22;13877;18.896;-99.222;2023-04-21T03:43:50;25.60;35.00
12413;DHT22;13877;18.896;-99.222;2023-04-21T03:46:22;25.50;35.40
12413;DHT22;13877;18.896;-99.222;2023-04-21T03:48:49;25.30;35.30
12413;DHT22;13877;18.896;-99.222;2023-04-21T03:51:16;25.30;35.50
12413;DHT22;13877;18.896;-99.222;2023-04-21T03:53:43;25.30;35.90
12413;DHT22;13877;18.896;-99.222;2023-04-21T03:56:10;25.10;36.40
12413;DHT22;13877;18.896;-99.222;2023-04-21T03:58:38;25.10;36.50
12413;DHT22;13877;18.896;-99.222;2023-04-21T04:01:05;25.00;36.60
12413;DHT22;13877;18.896;-99.222;2023-04-21T04:03:33;25.00;37.00
12413;DHT22;13877;18.896;-99.222;2023-04-21T04:06:00;24.90;37.40
12413;DHT22;13877;18.896;-99.222;2023-04-21T04:08:29;25.00;36.70
12413;DHT22;13877;18.896;-99.222;2023-04-21T04:10:56;24.90;36.60
12413;DHT22;13877;18.896;-99.222;2023-04-21T04:13:24;25.00;36.50
12413;DHT22;13877;18.896;-99.222;2023-04-21T04:15:52;25.00;36.90
12413;DHT22;13877;18.896;-99.222;2023-04-21T04:18:19;24.90;37.00
12413;DHT22;13877;18.896;-99.222;2023-04-21T04:20:46;24.90;37.70
12413;DHT22;13877;18.896;-99.222;2023-04-21T04:23:13;24.90;37.50
12413;DHT22;13877;18.896;-99.222;2023-04-21T04:25:40;25.00;37.20
12413;DHT22;13877;18.896;-99.222;2023-04-21T04:28:08;25.10;37.10
12413;DHT22;13877;18.896;-99.222;2023-04-21T04:30:35;25.00;37.70
12413;DHT22;13877;18.896;-99.222;2023-04-21T04:33:02;25.00;38.10
12413;DHT22;13877;18.896;-99.222;2023-04-21T04:35:30;25.00;38.30
12413;DHT22;13877;18.896;-99.222;2023-04-21T04:37:57;25.00;37.60
12413;DHT22;13877;18.896;-99.222;2023-04-21T04:40:24;25.00;37.60
12413;DHT22;13877;18.896;-99.222;2023-04-21T04:42:51;25.00;36.80
12413;DHT22;13877;18.896;-99.222;2023-04-21T04:45:18;25.00;37.30
12413;DHT22;13877;18.896;-99.222;2023-04-21T04:47:47;25.00;37.20
12413;DHT22;13877;18.896;-99.222;2023-04-21T04:50:14;24.90;37.50
12413;DHT22;13877;18.896;-99.222;2023-04-21T04:52:41;24.90;37.20
12413;DHT22;13877;18.896;-99.222;2023-04-21T04:55:12;24.90;37.40
12413;DHT22;13877;18.896;-99.222;2023-04-21T04:57:39;25.00;37.10
12413;DHT22;13877;18.896;-99.222;2023-04-21T05:00:07;25.20;35.80
12413;DHT22;13877;18.896;-99.222;2023-04-21T05:02:37;25.10;36.70
12413;DHT22;13877;18.896;-99.222;2023-04-21T05:05:05;24.90;37.60
12413;DHT22;13877;18.896;-99.222;2023-04-21T05:07:33;24.90;36.40
12413;DHT22;13877;18.896;-99.222;2023-04-21T05:10:00;24.80;36.90
12413;DHT22;13877;18.896;-99.222;2023-04-21T05:12:27;24.60;37.60
12413;DHT22;13877;18.896;-99.222;2023-04-21T05:14:54;24.40;38.60
12413;DHT22;13877;18.896;-99.222;2023-04-21T05:17:22;24.40;39.00
12413;DHT22;13877;18.896;-99.222;2023-04-21T05:19:49;24.40;38.00
12413;DHT22;13877;18.896;-99.222;2023-04-21T05:22:16;24.30;38.10
12413;DHT22;13877;18.896;-99.222;2023-04-21T05:24:43;24.10;38.30
12413;DHT22;13877;18.896;-99.222;2023-04-21T05:27:10;24.00;38.80
12413;DHT22;13877;18.896;-99.222;2023-04-21T05:29:38;23.90;38.70
12413;DHT22;13877;18.896;-99.222;2023-04-21T05:32:05;24.00;38.60
12413;DHT22;13877;18.896;-99.222;2023-04-21T05:34:32;24.00;38.50
12413;DHT22;13877;18.896;-99.222;2023-04-21T05:36:59;24.00;38.50
12413;DHT22;13877;18.896;-99.222;2023-04-21T05:39:29;24.10;38.60
12413;DHT22;13877;18.896;-99.222;2023-04-21T05:41:56;24.10;38.70
12413;DHT22;13877;18.896;-99.222;2023-04-21T05:44:24;24.00;38.90
12413;DHT22;13877;18.896;-99.222;2023-04-21T05:46:51;24.00;39.20
12413;DHT22;13877;18.896;-99.222;2023-04-21T05:49:18;24.00;39.50
12413;DHT22;13877;18.896;-99.222;2023-04-21T05:51:44;23.90;39.80
12413;DHT22;13877;18.896;-99.222;2023-04-21T05:54:12;23.80;40.00
12413;DHT22;13877;18.896;-99.222;2023-04-21T05:56:38;23.70;40.20
12413;DHT22;13877;18.896;-99.222;2023-04-21T05:59:05;23.60;40.50
12413;DHT22;13877;18.896;-99.222;2023-04-21T06:01:32;23.60;40.80
12413;DHT22;13877;18.896;-99.222;2023-04-21T06:03:59;23.50;40.80
12413;DHT22;13877;18.896;-99.222;2023-04-21T06:06:26;23.50;41.00
12413;DHT22;13877;18.896;-99.222;2023-04-21T06:08:53;23.40;41.10
12413;DHT22;13877;18.896;-99.222;2023-04-21T06:11:20;23.30;41.50
12413;DHT22;13877;18.896;-99.222;2023-04-21T06:13:48;23.30;41.70
12413;DHT22;13877;18.896;-99.222;2023-04-21T06:16:15;23.20;41.90
12413;DHT22;13877;18.896;-99.222;2023-04-21T06:18:41;23.10;41.90
12413;DHT22;13877;18.896;-99.222;2023-04-21T06:21:09;23.00;42.00
12413;DHT22;13877;18.896;-99.222;2023-04-21T06:23:36;22.90;42.30
12413;DHT22;13877;18.896;-99.222;2023-04-21T06:26:04;22.80;42.40
12413;DHT22;13877;18.896;-99.222;2023-04-21T06:28:33;22.80;42.60
12413;DHT22;13877;18.896;-99.222;2023-04-21T06:31:02;22.70;42.70
12413;DHT22;13877;18.896;-99.222;2023-04-21T06:33:29;22.70;42.80
12413;DHT22;13877;18.896;-99.222;2023-04-21T06:35:56;22.60;42.70
12413;DHT22;13877;18.896;-99.222;2023-04-21T06:38:23;22.70;42.80
12413;DHT22;13877;18.896;-99.222;2023-04-21T06:40:50;22.70;42.60
12413;DHT22;13877;18.896;-99.222;2023-04-21T06:43:17;22.60;43.50
12413;DHT22;13877;18.896;-99.222;2023-04-21T06:45:44;22.60;43.00
12413;DHT22;13877;18.896;-99.222;2023-04-21T06:48:11;22.50;43.20
12413;DHT22;13877;18.896;-99.222;2023-04-21T06:50:38;22.40;43.40
12413;DHT22;13877;18.896;-99.222;2023-04-21T06:53:05;22.50;43.50
12413;DHT22;13877;18.896;-99.222;2023-04-21T06:55:32;22.40;43.50
12413;DHT22;13877;18.896;-99.222;2023-04-21T06:57:59;22.40;43.60
12413;DHT22;13877;18.896;-99.222;2023-04-21T07:00:26;22.30;43.40
12413;DHT22;13877;18.896;-99.222;2023-04-21T07:02:53;22.30;43.60
12413;DHT22;13877;18.896;-99.222;2023-04-21T07:05:20;22.30;43.50
12413;DHT22;13877;18.896;-99.222;2023-04-21T07:07:47;22.30;43.40
12413;DHT22;13877;18.896;-99.222;2023-04-21T07:10:13;22.30;43.30
12413;DHT22;13877;18.896;-99.222;2023-04-21T07:12:45;22.30;43.40
12413;DHT22;13877;18.896;-99.222;2023-04-21T07:15:12;22.30;43.30
12413;DHT22;13877;18.896;-99.222;2023-04-21T07:17:39;22.30;43.40
12413;DHT22;13877;18.896;-99.222;2023-04-21T07:20:06;22.20;43.20
12413;DHT22;13877;18.896;-99.222;2023-04-21T07:22:34;22.20;43.20
12413;DHT22;13877;18.896;-99.222;2023-04-21T07:25:04;22.30;43.20
12413;DHT22;13877;18.896;-99.222;2023-04-21T07:27:35;22.30;43.00
12413;DHT22;13877;18.896;-99.222;2023-04-21T07:30:03;22.20;43.00
12413;DHT22;13877;18.896;-99.222;2023-04-21T07:32:30;22.10;43.10
12413;DHT22;13877;18.896;-99.222;2023-04-21T07:34:59;22.10;43.20
12413;DHT22;13877;18.896;-99.222;2023-04-21T07:37:27;22.00;43.40
12413;DHT22;13877;18.896;-99.222;2023-04-21T07:39:54;22.00;43.30
12413;DHT22;13877;18.896;-99.222;2023-04-21T07:42:21;22.00;43.40
12413;DHT22;13877;18.896;-99.222;2023-04-21T07:44:48;22.10;43.50
12413;DHT22;13877;18.896;-99.222;2023-04-21T07:47:15;22.10;43.70
12413;DHT22;13877;18.896;-99.222;2023-04-21T07:49:42;22.10;44.30
12413;DHT22;13877;18.896;-99.222;2023-04-21T07:52:09;22.00;44.20
12413;DHT22;13877;18.896;-99.222;2023-04-21T07:54:36;22.00;44.00
12413;DHT22;13877;18.896;-99.222;2023-04-21T07:57:05;22.10;43.80
12413;DHT22;13877;18.896;-99.222;2023-04-21T07:59:33;22.10;43.10
12413;DHT22;13877;18.896;-99.222;2023-04-21T08:02:00;22.20;43.30
12413;DHT22;13877;18.896;-99.222;2023-04-21T08:04:27;22.10;43.60
12413;DHT22;13877;18.896;-99.222;2023-04-21T08:06:54;22.00;43.50
12413;DHT22;13877;18.896;-99.222;2023-04-21T08:09:21;22.00;43.50
12413;DHT22;13877;18.896;-99.222;2023-04-21T08:11:48;22.10;43.20
12413;DHT22;13877;18.896;-99.222;2023-04-21T08:14:14;22.00;43.10
12413;DHT22;13877;18.896;-99.222;2023-04-21T08:16:41;22.00;43.00
12413;DHT22;13877;18.896;-99.222;2023-04-21T08:19:09;22.00;42.90
12413;DHT22;13877;18.896;-99.222;2023-04-21T08:21:36;22.00;42.90
12413;DHT22;13877;18.896;-99.222;2023-04-21T08:24:03;22.10;42.70
12413;DHT22;13877;18.896;-99.222;2023-04-21T08:26:30;22.10;42.20
12413;DHT22;13877;18.896;-99.222;2023-04-21T08:28:59;22.10;42.00
12413;DHT22;13877;18.896;-99.222;2023-04-21T08:31:26;22.10;41.90
12413;DHT22;13877;18.896;-99.222;2023-04-21T08:33:54;22.20;42.00
12413;DHT22;13877;18.896;-99.222;2023-04-21T08:36:20;22.20;41.80
12413;DHT22;13877;18.896;-99.222;2023-04-21T08:38:47;22.10;41.40
12413;DHT22;13877;18.896;-99.222;2023-04-21T08:41:14;22.20;41.30
12413;DHT22;13877;18.896;-99.222;2023-04-21T08:43:41;22.20;41.30
12413;DHT22;13877;18.896;-99.222;2023-04-21T08:46:11;22.20;41.00
12413;DHT22;13877;18.896;-99.222;2023-04-21T08:48:38;22.20;41.20
12413;DHT22;13877;18.896;-99.222;2023-04-21T08:51:09;22.00;41.40
12413;DHT22;13877;18.896;-99.222;2023-04-21T08:53:37;22.00;41.30
12413;DHT22;13877;18.896;-99.222;2023-04-21T08:56:04;22.10;40.90
12413;DHT22;13877;18.896;-99.222;2023-04-21T08:58:31;22.10;41.00
12413;DHT22;13877;18.896;-99.222;2023-04-21T09:00:58;22.10;41.50
12413;DHT22;13877;18.896;-99.222;2023-04-21T09:03:26;22.10;40.90
12413;DHT22;13877;18.896;-99.222;2023-04-21T09:06:01;22.10;41.10
12413;DHT22;13877;18.896;-99.222;2023-04-21T09:08:30;22.10;41.10
12413;DHT22;13877;18.896;-99.222;2023-04-21T09:10:59;22.00;40.90
12413;DHT22;13877;18.896;-99.222;2023-04-21T09:13:31;22.10;41.00
12413;DHT22;13877;18.896;-99.222;2023-04-21T09:15:59;22.10;40.90
12413;DHT22;13877;18.896;-99.222;2023-04-21T09:18:27;22.20;40.80
12413;DHT22;13877;18.896;-99.222;2023-04-21T09:21:17;22.10;40.70
12413;DHT22;13877;18.896;-99.222;2023-04-21T09:23:49;22.10;40.90
12413;DHT22;13877;18.896;-99.222;2023-04-21T09:26:18;22.10;40.70
12413;DHT22;13877;18.896;-99.222;2023-04-21T09:28:46;22.10;40.70
12413;DHT22;13877;18.896;-99.222;2023-04-21T09:31:18;22.10;40.40
12413;DHT22;13877;18.896;-99.222;2023-04-21T09:33:55;22.30;40.20
12413;DHT22;13877;18.896;-99.222;2023-04-21T09:36:27;22.20;40.10
12413;DHT22;13877;18.896;-99.222;2023-04-21T09:41:22;22.40;39.80
12413;DHT22;13877;18.896;-99.222;2023-04-21T09:43:49;22.40;39.70
12413;DHT22;13877;18.896;-99.222;2023-04-21T09:46:17;22.40;39.60
12413;DHT22;13877;18.896;-99.222;2023-04-21T09:48:45;22.40;39.40
12413;DHT22;13877;18.896;-99.222;2023-04-21T09:51:14;22.40;39.50
12413;DHT22;13877;18.896;-99.222;2023-04-21T09:53:43;22.70;38.90
12413;DHT22;13877;18.896;-99.222;2023-04-21T09:56:13;22.60;38.70
12413;DHT22;13877;18.896;-99.222;2023-04-21T09:58:52;22.60;38.70
12413;DHT22;13877;18.896;-99.222;2023-04-21T10:01:19;22.60;38.70
12413;DHT22;13877;18.896;-99.222;2023-04-21T10:03:48;22.60;38.70
12413;DHT22;13877;18.896;-99.222;2023-04-21T10:06:15;22.60;38.70
12413;DHT22;13877;18.896;-99.222;2023-04-21T10:08:45;22.60;38.60
12413;DHT22;13877;18.896;-99.222;2023-04-21T10:11:13;22.50;38.70
12413;DHT22;13877;18.896;-99.222;2023-04-21T10:13:41;22.60;38.50
12413;DHT22;13877;18.896;-99.222;2023-04-21T10:16:09;22.60;38.20
12413;DHT22;13877;18.896;-99.222;2023-04-21T10:18:44;22.70;38.30
12413;DHT22;13877;18.896;-99.222;2023-04-21T10:21:18;22.60;38.30
12413;DHT22;13877;18.896;-99.222;2023-04-21T10:23:48;22.70;38.10
12413;DHT22;13877;18.896;-99.222;2023-04-21T10:26:21;22.70;38.30
12413;DHT22;13877;18.896;-99.222;2023-04-21T10:29:04;22.70;38.00
12413;DHT22;13877;18.896;-99.222;2023-04-21T10:31:51;22.70;38.20
12413;DHT22;13877;18.896;-99.222;2023-04-21T10:34:28;22.70;38.10
12413;DHT22;13877;18.896;-99.222;2023-04-21T10:39:26;22.80;38.10
12413;DHT22;13877;18.896;-99.222;2023-04-21T10:41:57;22.70;37.90
12413;DHT22;13877;18.896;-99.222;2023-04-21T10:44:28;22.80;38.00
12413;DHT22;13877;18.896;-99.222;2023-04-21T10:46:57;22.80;38.10
12413;DHT22;13877;18.896;-99.222;2023-04-21T10:49:27;22.70;38.10
12413;DHT22;13877;18.896;-99.222;2023-04-21T10:55:05;22.70;38.30
12413;DHT22;13877;18.896;-99.222;2023-04-21T10:57:33;22.70;38.50
12413;DHT22;13877;18.896;-99.222;2023-04-21T11:00:01;22.40;38.90
12413;DHT22;13877;18.896;-99.222;2023-04-21T11:02:32;22.20;39.20
12413;DHT22;13877;18.896;-99.222;2023-04-21T11:05:01;22.30;39.50
12413;DHT22;13877;18.896;-99.222;2023-04-21T11:07:28;22.00;39.50
12413;DHT22;13877;18.896;-99.222;2023-04-21T11:10:01;21.90;39.90
12413;DHT22;13877;18.896;-99.222;2023-04-21T11:12:30;21.60;40.10
12413;DHT22;13877;18.896;-99.222;2023-04-21T11:14:57;21.60;40.70
12413;DHT22;13877;18.896;-99.222;2023-04-21T11:17:24;21.60;41.10
12413;DHT22;13877;18.896;-99.222;2023-04-21T11:19:53;21.40;41.60
12413;DHT22;13877;18.896;-99.222;2023-04-21T11:22:23;21.20;42.30
12413;DHT22;13877;18.896;-99.222;2023-04-21T11:24:53;21.00;42.90
12413;DHT22;13877;18.896;-99.222;2023-04-21T11:27:21;20.80;43.20
12413;DHT22;13877;18.896;-99.222;2023-04-21T11:29:49;21.10;43.30
12413;DHT22;13877;18.896;-99.222;2023-04-21T11:32:17;21.40;42.50
12413;DHT22;13877;18.896;-99.222;2023-04-21T11:34:44;21.40;42.00
12413;DHT22;13877;18.896;-99.222;2023-04-21T11:37:26;21.40;41.90
12413;DHT22;13877;18.896;-99.222;2023-04-21T11:39:56;21.40;42.20
12413;DHT22;13877;18.896;-99.222;2023-04-21T11:42:23;21.40;42.50
12413;DHT22;13877;18.896;-99.222;2023-04-21T11:44:53;21.30;42.80
12413;DHT22;13877;18.896;-99.222;2023-04-21T11:47:26;21.20;43.00
12413;DHT22;13877;18.896;-99.222;2023-04-21T11:49:55;21.00;43.50
12413;DHT22;13877;18.896;-99.222;2023-04-21T11:52:28;21.00;43.80
12413;DHT22;13877;18.896;-99.222;2023-04-21T11:55:10;21.00;44.00
12413;DHT22;13877;18.896;-99.222;2023-04-21T11:57:39;20.80;44.60
12413;DHT22;13877;18.896;-99.222;2023-04-21T12:00:08;20.70;45.10
12413;DHT22;13877;18.896;-99.222;2023-04-21T12:02:39;20.80;45.00
12413;DHT22;13877;18.896;-99.222;2023-04-21T12:05:07;21.00;44.60
12413;DHT22;13877;18.896;-99.222;2023-04-21T12:07:42;21.00;44.60
12413;DHT22;13877;18.896;-99.222;2023-04-21T12:10:20;21.10;44.80
12413;DHT22;13877;18.896;-99.222;2023-04-21T12:12:47;21.10;44.50
12413;DHT22;13877;18.896;-99.222;2023-04-21T12:15:19;21.20;44.30
12413;DHT22;13877;18.896;-99.222;2023-04-21T12:17:52;21.20;44.30
12413;DHT22;13877;18.896;-99.222;2023-04-21T12:20:22;21.20;44.50
12413;DHT22;13877;18.896;-99.222;2023-04-21T12:22:49;21.20;44.30
12413;DHT22;13877;18.896;-99.222;2023-04-21T12:25:17;21.10;44.50
12413;DHT22;13877;18.896;-99.222;2023-04-21T12:27:52;21.00;44.90
12413;DHT22;13877;18.896;-99.222;2023-04-21T12:30:20;20.70;45.40
12413;DHT22;13877;18.896;-99.222;2023-04-21T12:32:47;20.40;46.30
12413;DHT22;13877;18.896;-99.222;2023-04-21T12:35:14;20.10;47.60
12413;DHT22;13877;18.896;-99.222;2023-04-21T12:37:41;19.90;48.30
12413;DHT22;13877;18.896;-99.222;2023-04-21T12:40:08;19.90;48.40
12413;DHT22;13877;18.896;-99.222;2023-04-21T12:42:36;19.80;48.70
12413;DHT22;13877;18.896;-99.222;2023-04-21T12:45:03;19.80;49.10
12413;DHT22;13877;18.896;-99.222;2023-04-21T12:47:30;19.90;49.30
12413;DHT22;13877;18.896;-99.222;2023-04-21T12:49:58;20.00;49.20
12413;DHT22;13877;18.896;-99.222;2023-04-21T12:52:24;20.50;49.40
12413;DHT22;13877;18.896;-99.222;2023-04-21T12:54:52;20.80;49.20
12413;DHT22;13877;18.896;-99.222;2023-04-21T12:57:20;21.10;48.20
12413;DHT22;13877;18.896;-99.222;2023-04-21T12:59:47;21.20;47.50
12413;DHT22;13877;18.896;-99.222;2023-04-21T13:02:17;21.30;47.90
12413;DHT22;13877;18.896;-99.222;2023-04-21T13:04:44;21.30;47.40
12413;DHT22;13877;18.896;-99.222;2023-04-21T13:07:11;21.40;46.90
12413;DHT22;13877;18.896;-99.222;2023-04-21T13:09:38;21.60;47.80
12413;DHT22;13877;18.896;-99.222;2023-04-21T13:12:05;21.70;47.80
12413;DHT22;13877;18.896;-99.222;2023-04-21T13:14:32;21.90;47.40
12413;DHT22;13877;18.896;-99.222;2023-04-21T13:16:59;22.00;47.10
12413;DHT22;13877;18.896;-99.222;2023-04-21T13:19:27;22.10;46.50
12413;DHT22;13877;18.896;-99.222;2023-04-21T13:21:54;22.30;46.20
12413;DHT22;13877;18.896;-99.222;2023-04-21T13:24:21;22.40;46.80
12413;DHT22;13877;18.896;-99.222;2023-04-21T13:26:48;22.60;46.40
12413;DHT22;13877;18.896;-99.222;2023-04-21T13:29:15;22.60;45.20
12413;DHT22;13877;18.896;-99.222;2023-04-21T13:31:42;22.80;45.20
12413;DHT22;13877;18.896;-99.222;2023-04-21T13:34:11;23.00;44.60
12413;DHT22;13877;18.896;-99.222;2023-04-21T13:36:37;23.10;43.30
12413;DHT22;13877;18.896;-99.222;2023-04-21T13:39:08;23.30;43.90
12413;DHT22;13877;18.896;-99.222;2023-04-21T13:41:35;23.50;41.80
12413;DHT22;13877;18.896;-99.222;2023-04-21T13:44:02;23.80;42.00
12413;DHT22;13877;18.896;-99.222;2023-04-21T13:46:29;24.00;42.00
12413;DHT22;13877;18.896;-99.222;2023-04-21T13:48:56;24.10;42.00
12413;DHT22;13877;18.896;-99.222;2023-04-21T13:51:24;24.10;42.30
12413;DHT22;13877;18.896;-99.222;2023-04-21T13:53:51;24.20;42.30
12413;DHT22;13877;18.896;-99.222;2023-04-21T13:56:18;24.40;41.60
12413;DHT22;13877;18.896;-99.222;2023-04-21T13:58:45;24.40;41.50
12413;DHT22;13877;18.896;-99.222;2023-04-21T14:01:13;24.60;41.20
12413;DHT22;13877;18.896;-99.222;2023-04-21T14:03:40;24.80;40.90
12413;DHT22;13877;18.896;-99.222;2023-04-21T14:06:07;24.40;41.60
12413;DHT22;13877;18.896;-99.222;2023-04-21T14:08:34;24.60;41.10
12413;DHT22;13877;18.896;-99.222;2023-04-21T14:11:02;24.80;40.80
12413;DHT22;13877;18.896;-99.222;2023-04-21T14:13:29;25.20;40.50
12413;DHT22;13877;18.896;-99.222;2023-04-21T14:15:57;25.40;41.10
12413;DHT22;13877;18.896;-99.222;2023-04-21T14:18:24;25.50;40.90
12413;DHT22;13877;18.896;-99.222;2023-04-21T14:20:51;25.60;40.40
12413;DHT22;13877;18.896;-99.222;2023-04-21T14:23:17;25.60;39.90
12413;DHT22;13877;18.896;-99.222;2023-04-21T14:25:46;25.60;39.00
12413;DHT22;13877;18.896;-99.222;2023-04-21T14:28:13;25.80;38.40
12413;DHT22;13877;18.896;-99.222;2023-04-21T14:30:40;25.90;39.00
12413;DHT22;13877;18.896;-99.222;2023-04-21T14:33:08;26.10;38.50
12413;DHT22;13877;18.896;-99.222;2023-04-21T14:35:38;25.80;39.10
12413;DHT22;13877;18.896;-99.222;2023-04-21T14:38:04;25.90;38.00
12413;DHT22;13877;18.896;-99.222;2023-04-21T14:40:31;26.20;38.80
12413;DHT22;13877;18.896;-99.222;2023-04-21T14:42:58;26.10;39.20
12413;DHT22;13877;18.896;-99.222;2023-04-21T14:45:26;26.60;38.20
12413;DHT22;13877;18.896;-99.222;2023-04-21T14:47:53;26.80;37.60
12413;DHT22;13877;18.896;-99.222;2023-04-21T14:50:22;27.00;37.20
12413;DHT22;13877;18.896;-99.222;2023-04-21T14:52:49;26.90;36.20
12413;DHT22;13877;18.896;-99.222;2023-04-21T14:55:16;27.00;36.30
12413;DHT22;13877;18.896;-99.222;2023-04-21T14:57:45;26.90;36.00
12413;DHT22;13877;18.896;-99.222;2023-04-21T15:00:13;27.20;36.40
12413;DHT22;13877;18.896;-99.222;2023-04-21T15:02:40;26.90;36.20
12413;DHT22;13877;18.896;-99.222;2023-04-21T15:05:07;27.20;37.50
12413;DHT22;13877;18.896;-99.222;2023-04-21T15:07:34;27.30;36.70
12413;DHT22;13877;18.896;-99.222;2023-04-21T15:10:01;26.70;36.80
12413;DHT22;13877;18.896;-99.222;2023-04-21T15:12:28;26.90;36.90
12413;DHT22;13877;18.896;-99.222;2023-04-21T15:14:55;27.20;36.40
12413;DHT22;13877;18.896;-99.222;2023-04-21T15:17:22;27.70;36.30